Terminal Aerodrome Forecast
Issued by NWS Greer, SC

Home | Current Version | Previous Version | Text Only | Print | Product List | Glossary On
Versions: 1 2 3 4 5 6 7 8 9 10 11 12 13 14 15 16 17 18 19 20 21 22 23 24 25
000
FTUS42 KGSP 251737
TAFCLT
TAF
KCLT 251737Z 2518/2618 23014G22KT P6SM VCSH SCT025 BKN070
     FM251930 25015G24KT P6SM FEW070
     FM252100 29013G27KT P6SM SKC
     FM252300 30009KT P6SM SKC
     FM260700 31005KT P6SM SKC=

USA.gov is the U.S. government's official web portal to all federal, state and local government web resources and services.